LFRBLFRJ

Guest
Details From LFRB - Brest Bretagne
To LFRJ - Landivisiau Navy
Flight Number -
Tags generated
Created
Modified
Stats Distance 12 nm / 22 km
Max Altitude 0 ft / 0 m
Waypoints 3
Social Downloads 0
Likes 0
Share VATSIM

Download

Looking for another format? Having issues loading an existing format? Contact us
Advertisement - Login to hide

Notes

Basic altitude profile: - Ascent Rate: 2500ft/min - Ascent Speed: 250kts - Cruise Altitude: 35000ft - Cruise Speed: 350kts - Descent Rate: 1500ft/min - Descent Speed: 250kts Options: - Use NATs: yes - Use PACOTS: yes - Use low airways: yes - Use high airways: yes

Route

LFRB LDV LFRJ

ID Type Via Altitude Latitude Longitude Leg Dist Tot Dist Heading (true) Name
O LFRB APT - 0 ft / 0 m 48.44938˚ -4.41823˚ - 0 nm - Brest Bretagne
LDV VOR - 0 ft / 0 m 48.52828˚ -4.15631˚ 11 nm 11 nm 65° / 66° -
O LFRJ APT - 0 ft / 0 m 48.53023˚ -4.15179˚ 0 nm 11 nm 57° / 57° Landivisiau Navy

Altitude Profile

Advertisement - Login to hide

LFRB

Details ICAO LFRB (BES)
Name Brest Bretagne
Region France
Timezone Europe/Paris (UTC+1.0)
Stats Elevation 325 ft / 99 m (AMSL)
Location 48.449376° -4.418232°
Runways 2
Magnetic Variation 1.576° W

METAR

LFRB 150630Z AUTO 32012KT 9999 FEW021/// BKN027/// BKN036/// ///TCU 08/06 Q1001 TEMPO 4000 SHRA

Decode

TAF

TAF LFRB 150500Z 1506/1612 30010KT 9999 SCT025 SCT035 TEMPO 1506/1524 4000 SHRA BKN020TCU TEMPO 1509/1512 30020G35KT TSGR BKN018CB

Decode

Departure Runways

ID Width Length Bearing (true) Bearing (mag) Surface Threshold Offset Overrun Length
07L 62 ft / 19 m 2,518 ft / 768 m 71.21° 72.79° Asphalt 131 ft / 40 m 0 ft / 0 m
07R 148 ft / 45 m 10,153 ft / 3,095 m 71.16° 72.74° Asphalt 0 ft / 0 m 0 ft / 0 m
25L 148 ft / 45 m 10,153 ft / 3,095 m 251.19° 252.77° Asphalt 984 ft / 300 m 0 ft / 0 m
25R 62 ft / 19 m 2,518 ft / 768 m 251.22° 252.80° Asphalt 112 ft / 34 m 0 ft / 0 m

LFRJ

Details ICAO LFRJ
Name Landivisiau Navy
Region France
Timezone Europe/Paris (UTC+1.0)
Stats Elevation 347 ft / 106 m (AMSL)
Location 48.530229° -4.151792°
Runways 1
Magnetic Variation 1.493° W

METAR

LFRJ 150630Z AUTO 31010KT 9999 SCT024/// BKN029/// BKN036/// ///TCU 07/05 Q1001 TEMPO 32025G38KT 4000 SHRA SCT015TCU BKN025CB

Decode

TAF

Not found

Destination Runways

ID Width Length Bearing (true) Bearing (mag) Surface Threshold Offset Overrun Length
08 148 ft / 45 m 8,868 ft / 2,703 m 73.24° 74.73° Asphalt 0 ft / 0 m 279 ft / 85 m
26 148 ft / 45 m 8,868 ft / 2,703 m 253.27° 254.76° Asphalt 0 ft / 0 m 279 ft / 85 m

Approach Navaids

Runway Type Ident Frequency Range Bearing (true) Bearing (mag) Slope Elevation
26 Localiser LD 108.50 MHz 18 nm / 33 km 253.24° 254.73° - 347 ft / 106 m (AMSL)
26 Glidescope LD 108.50 MHz 10 nm / 19 km 253.25° 254.75° 2.50° 347 ft / 106 m (AMSL)
26 DME LD 108.50 MHz 18 nm / 33 km - - - 347 ft / 106 m (AMSL)

Popular Alternatives